Create Custom Reports and Graphics: Custom Report

Chair 1 Top - 9,875ft

Current Conditions

4/18/24 10:45 AM (-07:00)
Updated Every 15 Minutes
Temp 39.1 °F   0.6
WindChill 27.3 °F   0.2
Daily Min Temp 35.2 °F   0.6
Time of Min Temp 0352
Daily Max Temp 39.6 °F   1.4
Time of Max Temp 1044
Wind Dir SW | 219 °
Wind Spd 29.4 mph   3.8
Wind Gust 43.0 mph   1.9
Daily Max Wind 62.9 mph   18.0
Time of Max Wind 0545
Max Wind Dir SW | 223 °
RH 34 %   1
Dew Pt 13.1 °F   0.9
Wet Bulb 30.8 °F   0.6
WetB Hrs <28F 0.0 hrs   0.0
Yest MinT 35.7 °F
Yest MaxT 45.0 °F
Yest MaxGst 58.6 mph
No Data Available for this Wind Rose report. Either no data was reported for this station for the date range selected, or the station does not have wind sensors installed.
No Data Available for this Wind Rose report. Either no data was reported for this station for the date range selected, or the station does not have wind sensors installed.

Last 7 Days

Chair 1 Top - 9,875ft

Hourly Data | America/Los_Angeles
as of 5/27/24 12:11 PM PDT
No Data Available

Last 365 Observations

Chair 1 Top - 9,875ft

Daily Data | America/Los_Angeles
as of 5/27/24 12:12 PM PDT
Date Daily Max Temp (°F) Time of Max Temp Daily Min Temp (°F) Time of Min Temp Temp (°F) Daily Max Wind (mph) Time of Max Wind Max Wind Dir (°) Wind Spd (mph) Dew Pt (°F) Max RH (%) Min RH (%) Max Wet Bulb Temp (°F) Min Wet Bulb Temp (°F) Wet Bulb (°F) WetB Hrs <28F (hrs) Hrs <= 32F (hrs) Min Wind Chill (°F) Wind Chill Time
4/17/24 45.0 1540 35.7 2344 39.3 58.6 2358 SW | 217 35.6 20.8 99 25 38.1 29.0 33.1 0.0 0.0 18.7 2343
4/16/24 47.4 0924 27.6 0331 37.1 52.6 1545 SW | 224 20.9 19.3 86 18 36.1 24.1 31.1 5.8 5.3 15.8 0301
4/15/24 38.4 1709 16.9 0224 27.1 36.2 0134 WSW | 242 10.5 17.3 99 22 30.6 16.5 24.1 16.6 16.6 -3.8 0206
4/14/24 21.3 1503 12.4 0531 17.7 58.4 2239 SW | 228 27.8 16.4 97 92 21.0 12.1 17.3 24.0 24.0 -13.0 0307
4/13/24 33.0 1109 14.2 0058 24.8 84.3 2100 W | 271 17.8 16.8 99 41 28.7 13.8 22.4 23.7 23.1 -13.8 2100
4/12/24 39.3 0918 27.8 2300 34.4 63.3 1639 S | 189 15.3 24.5 85 45 34.3 26.3 30.8 4.5 5.7 8.4 2231
4/11/24 53.3 1005 35.1 0557 41.9 44.8 1747 W | 265 7.6 20.4 69 23 40.4 29.3 34.1 0.0 0.0 24.4 2118
4/10/24 50.6 1257 32.0 0634 39.6 38.1 1610 SW | 224 11.1 19.7 58 20 38.9 24.8 32.6 2.0 0.0 26.7 2009
4/9/24 41.6 1610 19.8 0109 34.6 20.8 1021 E | 95 8.9 5.4 69 8 33.0 17.4 27.0 9.8 7.6 5.2 0101
4/8/24 27.0 1741 12.3 0254 18.6 32.5 1723 NE | 41 18.4 10.4 94 38 21.9 12.0 16.5 24.0 24.0 -7.6 0655
4/7/24 28.6 1028 13.4 0059 19.6 40.1 0555 SW | 222 20.3 2.5 96 17 21.7 12.0 16.2 24.0 24.0 -5.8 0554
4/6/24 20.2 2142 6.3 0101 13.8 82.8 1446 SSW | 200 38.7 6.6 95 31 15.8 6.2 12.4 - - -19.6 0131
4/5/24 10.1 1407 5.7 0220 7.9 71.5 1316 SW | 232 25.4 5.7 92 90 9.9 5.7 7.7 24.0 24.0 -22.1 0145
4/4/24 26.5 0321 5.8 0046 16.5 103.3 0355 SW | 219 21.6 15.3 100 90 26.4 5.8 16.3 24.0 24.0 -25.8 2119
4/3/24 38.6 1153 26.0 0046 33.2 84.6 1930 W | 272 30.4 22.7 100 33 32.9 25.8 29.6 5.6 8.5 4.3 1930
4/2/24 42.4 1728 25.4 0108 33.9 34.9 0058 SW | 216 12.2 17.8 79 26 34.6 23.3 28.6 9.7 9.0 9.3 0256
4/1/24 28.7 1819 13.6 0516 20.4 43.6 2042 NE | 54 19.8 15.4 97 48 24.6 13.3 19.0 24.0 24.0 -6.9 0358
3/31/24 20.0 1733 14.1 0408 16.6 71.4 0352 WSW | 237 37.5 15.4 97 94 19.7 13.8 16.2 24.0 24.0 -14.5 0352
3/30/24 26.3 1151 13.7 0700 17.3 78.8 0602 SSW | 206 21.4 16.1 100 93 26.1 13.4 17.0 24.0 24.0 -15.2 0629
3/29/24 20.0 2202 15.6 0637 17.8 63.1 0317 SSW | 208 15.0 16.7 97 94 19.7 15.3 17.4 24.0 24.0 -10.5 0635
3/28/24 22.4 0427 18.5 0059 20.1 93.2 1138 W | 269 27.1 19.3 100 95 22.1 18.1 19.8 23.6 23.6 -9.1 1144
3/27/24 32.5 1150 21.6 0348 26.0 76.6 0030 SSW | 198 29.6 12.5 98 17 26.0 17.9 22.6 24.0 23.7 -3.5 0030
3/26/24 28.0 1455 14.8 0642 22.3 61.0 0056 SW | 221 30.3 12.2 97 30 24.8 13.7 19.6 24.0 24.0 -10.5 0404
3/25/24 23.1 1554 10.4 0414 17.3 56.6 0557 SSW | 212 29.2 13.0 96 52 21.8 10.1 16.2 24.0 24.0 -16.0 0557
3/24/24 19.6 1516 12.3 0406 14.8 79.0 0622 SW | 217 29.7 13.2 97 92 19.3 12.0 14.4 24.0 24.0 -18.3 0327
3/23/24 22.1 0102 13.1 0059 17.3 83.2 0713 W | 281 26.2 16.0 97 91 21.8 12.8 17.0 24.0 24.0 -15.3 0030
3/22/24 33.2 1140 22.1 0055 29.0 77.5 1414 WNW | 284 21.9 20.9 99 29 29.7 21.8 26.4 21.1 22.0 -0.7 0045
3/21/24 34.1 1616 25.0 0318 29.8 68.6 0642 SW | 219 42.2 21.3 98 41 30.9 23.6 27.0 14.2 16.9 2.7 0642
3/20/24 38.2 1225 26.1 0026 32.3 66.7 0047 SW | 225 21.5 23.4 99 48 34.6 25.0 29.2 10.4 11.7 4.7 0026
3/19/24 43.8 1443 27.0 0704 34.6 13.9 1043 NE | 34 2.6 17.9 75 29 34.6 24.2 29.1 7.1 7.0 20.3 0345
3/18/24 36.9 1432 26.2 0359 31.1 26.2 1712 NNE | 33 11.9 17.7 74 38 31.1 23.8 26.8 15.9 13.8 13.4 0722
3/17/24 33.4 1709 23.6 0334 28.0 31.2 1559 ESE | 118 17.0 19.3 83 54 28.6 22.0 25.1 21.7 20.6 8.5 0341
3/16/24 30.9 1609 20.5 0108 25.4 30.5 1054 ESE | 108 14.6 18.7 89 61 27.2 19.5 23.2 24.0 24.0 5.2 0216
3/15/24 21.4 2230 14.0 0836 17.3 45.7 0920 ENE | 59 22.7 15.4 96 78 19.9 13.7 16.8 24.0 24.0 -10.2 0920
3/14/24 17.6 1812 5.6 0758 15.6 66.1 0641 ENE | 60 28.5 11.8 95 67 16.1 5.5 14.7 22.2 22.2 -25.6 0658
3/13/24 29.3 1304 9.8 0056 20.7 76.4 0403 SW | 216 22.7 10.0 96 36 23.8 9.2 18.0 24.0 24.0 -16.4 0058
3/12/24 26.1 1211 18.2 0042 22.8 87.1 0347 SW | 221 42.7 21.8 100 68 26.0 17.9 22.4 24.0 24.0 -6.3 0052
3/11/24 28.1 2219 18.7 0508 22.5 88.4 1703 SW | 223 44.7 20.3 99 54 24.8 18.3 21.7 24.0 24.0 -8.5 0433
3/10/24 28.4 1124 20.4 0055 24.4 82.4 1308 SW | 222 41.4 10.8 99 26 25.4 18.0 21.1 24.0 24.0 -4.4 0101
3/9/24 28.3 1127 22.4 1929 24.6 74.2 2301 SW | 231 33.6 8.7 84 24 23.9 18.0 20.6 24.0 24.0 -1.5 2301
3/8/24 30.6 1448 11.0 0608 22.4 53.0 2358 SW | 230 15.4 2.2 96 20 23.3 10.8 18.0 24.0 24.0 -9.2 0531
3/7/24 24.8 1058 14.6 0607 18.3 27.9 1946 NE | 44 8.5 16.9 100 80 24.6 14.2 17.9 24.0 24.0 -0.2 1946
3/6/24 26.5 1329 15.7 0314 19.2 53.4 0007 W | 277 14.8 18.3 100 92 26.3 15.4 18.9 24.0 24.0 -9.8 0007
3/5/24 20.2 1238 15.3 0638 17.9 75.2 1025 W | 267 31.1 17.0 99 94 20.0 15.0 17.6 23.4 23.4 -9.8 1025
3/4/24 19.3 1939 9.9 0712 17.1 117.6 0357 SW | 228 27.0 16.2 97 92 19.0 9.7 16.8 23.5 23.5 -23.6 0354
3/3/24 13.5 0001 9.7 0345 11.6 137.4 0805 SW | 223 48.4 9.9 94 91 13.2 9.5 11.4 24.0 24.0 -26.3 0805
3/2/24 19.5 0100 9.5 1750 13.0 169.5 0715 W | 274 47.0 11.4 97 91 19.2 9.3 12.7 24.0 24.0 -29.8 1304
3/1/24 22.0 1342 18.0 1859 19.6 117.4 2335 W | 270 28.4 18.7 98 96 21.7 17.6 19.2 24.0 24.0 -12.5 2335
2/29/24 24.2 1335 19.3 0001 21.9 104.6 2202 WSW | 255 25.2 19.8 99 69 24.0 18.9 21.2 24.0 24.0 -9.4 2214
2/28/24 33.2 1129 23.2 2315 27.3 58.6 2015 W | 275 27.2 15.3 99 34 27.2 21.3 23.9 24.0 23.1 1.1 2056
2/27/24 30.8 1234 16.1 0536 23.7 98.9 0034 SW | 230 - 11.3 98 25 24.3 15.8 20.5 24.0 24.0 -9.7 0554
2/26/24 24.4 1646 20.3 0001 22.3 114.7 2013 SSW | 213 32.6 21.8 99 94 24.2 20.0 22.0 - - -8.2 2356
2/25/24 33.4 1246 22.4 2354 28.5 59.5 2159 SSW | 206 19.7 12.0 100 21 27.0 21.5 24.2 24.0 21.4 -0.7 2326
2/24/24 39.6 1157 23.2 0001 31.0 56.0 2232 SSW | 208 14.0 9.4 81 23 31.2 20.4 25.1 20.7 15.7 7.5 2301
2/23/24 31.9 1416 17.8 0210 23.7 16.8 1827 E | 100 - 15.8 93 37 28.6 15.8 21.4 23.9 24.0 8.5 0921
2/22/24 24.1 1511 15.7 0508 19.6 30.6 0015 WSW | 243 9.8 17.8 98 82 23.4 15.4 19.0 24.0 24.0 -2.6 0014
2/21/24 19.9 1441 15.3 0701 17.8 67.9 0642 SW | 230 26.4 16.7 97 94 19.6 14.9 17.4 24.0 24.0 -12.0 0646
2/20/24 22.7 1523 16.8 0136 19.4 73.2 2345 W | 262 12.0 18.6 99 95 22.5 16.5 19.1 24.0 24.0 -6.8 2345
2/19/24 26.5 0054 17.2 2334 21.9 97.8 0532 WSW | 243 19.5 21.4 100 95 26.3 16.8 21.6 24.0 24.0 -6.7 1506
2/18/24 26.3 1437 18.5 0858 23.1 80.7 0219 SW | 225 22.0 22.3 99 90 26.0 18.0 22.7 24.0 24.0 -6.8 0830
2/17/24 28.5 0001 21.0 1854 24.7 77.0 1255 SSW | 194 18.2 20.5 98 64 26.3 20.7 23.3 24.0 24.0 -3.6 1534
2/16/24 35.2 1010 24.2 2108 29.8 60.8 0031 SSW | 211 24.9 16.1 94 35 29.7 20.0 25.7 20.7 18.8 4.0 0048
2/15/24 27.9 0001 16.2 0728 21.4 103.4 0646 SW | 222 31.0 13.0 97 32 23.1 15.8 19.3 24.0 24.0 -14.5 0719
2/14/24 23.4 1322 19.3 2341 21.5 103.9 2118 W | 263 34.8 13.6 97 46 21.4 16.6 19.4 24.0 24.0 -10.0 2117
2/13/24 27.9 1222 19.2 2142 23.4 67.3 1502 SSW | 211 33.9 7.6 97 21 22.1 16.8 19.6 24.0 24.0 -5.8 2147
2/12/24 39.3 1038 24.7 1901 27.8 51.9 1440 SW | 235 22.3 1.0 55 15 28.7 18.6 21.7 23.5 21.4 5.3 1929
2/11/24 37.7 1030 24.6 2247 30.0 16.3 2203 NE | 55 6.9 7.0 53 7 29.8 19.3 24.0 23.6 18.6 13.0 2316
2/10/24 28.9 2318 4.3 0712 12.5 46.1 0125 NE | 46 17.2 4.7 96 4 20.0 4.3 11.4 24.0 24.0 -20.0 0505
2/9/24 17.5 1514 8.9 2359 13.1 59.8 0624 SW | 220 26.5 11.5 96 91 17.2 8.7 12.8 24.0 24.0 -17.6 2307
2/8/24 22.7 1113 10.2 0239 13.9 65.9 0212 SW | 230 23.2 12.4 99 92 22.5 10.0 13.6 24.0 24.0 -19.5 0212
2/7/24 15.9 0331 11.4 2353 14.7 106.7 0927 WSW | 250 26.8 13.3 95 92 15.5 11.1 14.4 24.0 24.0 -18.4 0955
2/6/24 20.1 1138 14.9 2129 17.9 44.3 0858 SW | 227 18.1 16.9 97 94 19.8 14.6 17.6 24.0 24.0 -7.9 2353
2/5/24 20.4 0030 15.8 0733 18.3 81.0 0124 NE | 55 11.8 17.3 97 95 20.1 15.5 17.9 24.0 24.0 -7.5 0359
2/4/24 24.2 1557 16.7 0159 21.2 94.6 1933 S | 169 13.9 20.6 99 95 24.0 16.3 21.0 - - -5.2 2326
2/3/24 17.3 2358 10.8 0624 13.3 68.1 0121 S | 180 - 11.7 95 92 16.9 10.5 13.0 24.0 24.0 -18.9 0518
2/2/24 17.2 1400 12.6 2357 15.0 71.8 2021 S | 184 27.7 13.5 95 92 16.8 12.2 14.6 24.0 24.0 -16.4 2336
2/1/24 24.8 0306 15.7 2357 20.4 57.2 1404 W | 260 17.6 19.6 99 94 24.6 15.4 20.1 24.0 24.0 -7.3 2241
1/31/24 32.8 0035 22.8 2358 28.3 73.9 1619 SW | 214 16.4 17.6 98 39 27.5 22.5 25.0 24.0 23.0 1.6 1805
1/30/24 42.3 1044 32.2 2359 36.5 51.8 2121 SSW | 211 13.2 15.7 68 24 32.7 26.2 29.8 3.9 0.0 15.0 2121
1/29/24 44.6 1222 30.6 0713 36.1 20.6 2108 S | 178 4.0 22.5 75 41 36.5 28.1 31.2 0.0 2.6 22.8 0119
1/28/24 42.9 1403 33.2 0720 36.4 16.0 2305 NE | 46 - 24.0 70 50 36.3 29.8 31.9 0.0 0.0 24.7 2305
1/27/24 48.0 1359 36.1 0335 39.4 15.8 0722 ESE | 114 5.4 24.8 64 37 38.4 31.6 33.9 0.0 0.0 28.8 0656
1/26/24 43.5 1324 20.7 0219 33.1 22.6 0051 W | 271 6.0 21.4 89 24 36.4 17.3 29.2 8.1 8.2 5.9 0051
1/25/24 24.2 0001 15.5 0734 20.0 84.1 0248 W | 267 19.3 19.1 100 84 24.1 15.2 19.6 24.0 24.0 -10.3 0730
1/24/24 28.0 1523 19.0 0006 25.0 75.2 1805 SSW | 208 37.7 24.8 100 96 27.9 18.7 24.8 24.0 24.0 -6.9 0355
1/23/24 30.8 1311 17.0 2044 21.4 52.9 2356 SW | 224 - 20.9 100 95 30.6 16.7 21.2 22.8 24.0 -4.6 2356
1/22/24 28.7 1327 22.2 0423 24.7 65.1 0034 SSW | 207 9.1 24.5 100 98 28.6 22.0 24.5 23.5 24.0 -2.4 0034
1/21/24 25.6 1325 18.9 0025 23.1 62.4 1354 SW | 229 26.8 22.7 100 96 25.4 18.6 22.9 24.0 24.0 -3.9 0013
1/20/24 24.5 1051 19.2 2333 22.6 88.9 1455 W | 278 - 22.0 99 96 24.3 18.8 22.3 24.0 24.0 -5.9 1455
1/19/24 37.1 0304 22.4 2214 30.8 53.2 2205 SW | 222 - 15.6 97 32 30.0 21.6 26.1 18.0 11.3 -0.1 2205
1/18/24 38.1 1202 30.7 0104 35.3 42.4 2352 SW | 229 8.3 16.7 57 26 31.9 23.5 29.4 4.1 1.7 18.5 2357
1/17/24 32.4 2353 20.0 1250 24.4 96.1 0405 SW | 236 40.5 18.6 100 25 26.2 19.6 22.7 24.0 23.8 -7.3 1234
1/16/24 35.1 0916 24.2 2130 29.7 81.4 1238 WSW | 253 34.2 16.5 100 31 27.8 24.0 25.8 24.0 16.8 -0.2 2128
1/15/24 38.7 1440 22.6 0256 31.1 55.9 0746 SSW | 202 24.0 13.4 99 29 31.6 20.2 25.8 19.0 9.8 2.2 0308
1/14/24 26.7 1955 21.0 0833 23.7 94.4 0332 SSW | 212 39.1 23.2 100 97 26.6 20.7 23.4 24.0 24.0 -5.7 0633
1/13/24 30.5 0430 20.5 1959 24.5 100.3 2120 WSW | 254 36.0 22.3 99 71 27.6 20.1 23.6 24.0 24.0 -8.1 1949
1/12/24 27.3 0643 20.5 1937 23.7 75.8 1443 WSW | 244 33.8 6.8 80 30 24.5 16.3 19.7 24.0 24.0 -4.9 1904
1/11/24 23.2 1537 1.4 0713 13.6 83.3 0003 WSW | 241 23.8 -3.0 92 18 17.8 1.6 10.7 24.0 24.0 -23.3 0008
1/10/24 16.6 0008 10.3 0001 14.9 128.6 2033 SW | 221 57.3 11.1 94 58 15.8 10.0 14.1 24.0 24.0 -22.4 2351
1/9/24 29.6 0010 15.3 2310 23.7 89.5 1919 SW | 234 49.0 12.3 96 36 24.0 14.1 20.6 24.0 24.0 -13.9 2306
1/8/24 30.3 2313 1.7 0012 20.2 43.4 1354 NE | 47 18.0 3.6 93 13 25.3 1.8 17.1 24.0 24.0 -19.6 0008
1/7/24 7.8 1430 1.8 2344 4.3 27.3 1924 ENE | 72 11.5 -2.4 90 55 6.7 1.6 3.6 24.0 24.0 -20.3 1924
1/6/24 22.7 0423 4.3 2357 15.1 138.8 1413 W | 259 29.7 1.9 92 24 17.1 4.3 12.6 24.0 24.0 -25.9 1429
1/5/24 24.6 0109 15.8 0820 19.6 38.6 0137 S | 191 14.4 4.3 95 24 19.8 13.4 16.3 24.0 24.0 -4.3 0900
1/4/24 24.0 2358 10.1 0339 17.0 25.8 1516 NNE | 30 9.2 8.7 93 31 19.6 9.8 15.1 24.0 24.0 -8.0 0019
1/3/24 17.3 0002 11.0 0826 13.3 69.5 0908 NW | 306 24.8 11.5 95 91 16.9 10.7 12.9 - - -18.7 0843
1/2/24 25.2 1326 17.3 2359 22.2 79.4 0824 WNW | 291 29.5 13.6 94 54 21.7 16.8 19.8 24.0 24.0 -3.4 0705
1/1/24 30.6 1253 17.2 0613 22.2 14.6 0005 S | 187 1.5 12.6 86 52 26.4 15.8 19.6 24.0 24.0 6.0 0006
12/31/23 27.1 1040 14.8 0116 21.3 42.4 1631 SSW | 199 12.3 3.8 94 11 20.6 14.2 17.7 24.0 24.0 -2.1 1629
12/30/23 24.2 0005 17.4 2100 21.2 78.6 0437 WSW | 246 - 19.8 99 71 23.2 17.0 20.7 24.0 24.0 -5.5 0437
12/29/23 36.5 0014 23.8 0001 32.4 43.7 1615 SSW | 192 - 11.8 74 19 29.7 21.6 26.5 20.2 7.0 6.6 2354
12/28/23 39.6 1430 28.5 0118 33.9 53.0 0142 WSW | 258 16.8 20.3 94 36 33.6 27.2 29.4 3.4 8.6 9.4 0117
12/27/23 34.2 0236 25.2 2218 29.6 78.2 1616 SW | 218 17.8 1.0 82 19 27.9 20.3 22.8 24.0 22.5 5.4 1645
12/26/23 36.1 2311 28.0 0547 32.1 67.0 1212 SSW | 208 28.7 9.0 84 17 28.8 23.2 25.9 22.8 11.4 11.1 1623
12/25/23 31.8 1228 24.0 0732 28.5 43.7 1720 SSW | 194 - 27.4 100 67 31.8 23.9 28.0 10.0 24.0 6.1 0127
12/24/23 31.0 1302 20.2 0001 24.4 38.0 0305 SW | 222 - 24.3 100 99 30.9 20.0 24.2 21.6 24.0 0.3 0420
12/23/23 31.2 1316 17.9 0200 22.4 17.8 2325 S | 178 3.3 22.2 100 97 31.1 17.6 22.2 20.4 24.0 3.9 0154
12/22/23 31.3 1419 21.3 2358 25.4 23.8 1508 SW | 216 4.6 25.4 100 99 31.3 21.1 25.2 19.8 24.0 11.3 0121
12/21/23 27.4 1421 24.0 0545 25.9 22.0 1033 ENE | 64 6.7 25.8 100 100 27.3 23.9 25.7 24.0 24.0 11.6 0911
12/20/23 28.3 1213 24.0 0017 25.9 27.0 0001 SE | 124 - 25.9 100 100 28.1 23.9 25.8 23.8 24.0 7.5 0001
12/19/23 28.5 0040 24.1 2359 26.4 67.0 1113 WSW | 249 15.2 26.4 100 100 28.4 24.0 26.3 22.9 24.0 3.7 1113
12/18/23 38.7 0001 26.7 0217 30.4 77.3 2349 SSW | 204 16.0 27.7 100 20 31.7 26.1 29.5 2.6 21.4 5.9 2349
12/17/23 46.5 1044 37.0 0006 39.6 38.5 1336 SSW | 210 10.0 1.2 30 13 35.0 26.9 29.3 4.9 0.0 26.7 1412
12/16/23 44.8 1341 35.9 0454 39.4 42.1 0414 W | 270 8.2 -5.6 23 7 32.1 25.7 28.4 11.3 0.0 21.1 0414
12/15/23 44.2 1008 32.2 1936 36.8 51.4 0142 SSW | 209 - -2.6 31 6 32.3 23.4 27.1 15.7 0.0 16.7 0011
12/14/23 39.6 1134 26.0 0030 31.7 37.6 1402 SSW | 202 14.9 -6.5 33 11 29.2 19.7 23.3 23.6 14.1 11.4 0200
12/13/23 28.6 1349 15.6 0149 24.1 26.1 0102 E | 80 - 7.6 95 30 23.3 15.2 20.0 24.0 24.0 -3.1 0102
12/12/23 30.5 0244 16.6 2353 24.0 27.6 0159 W | 267 9.6 12.7 98 35 24.5 16.2 20.9 24.0 24.0 0.6 2118
12/11/23 38.1 1221 25.3 2327 33.5 54.5 1530 WSW | 240 15.4 2.6 59 8 28.8 20.9 25.7 20.7 7.1 15.0 1741
12/10/23 46.4 1050 36.5 2231 40.0 46.7 1802 SW | 215 21.0 8.0 60 10 34.4 26.8 30.6 3.0 0.0 22.0 2234
12/9/23 39.7 1800 31.5 0030 35.8 22.7 0339 WSW | 244 - 6.1 53 13 32.8 23.6 27.8 13.0 1.6 18.9 0339
12/8/23 35.2 1247 20.5 0030 28.7 50.5 0001 SW | 226 13.3 -11.6 38 8 25.5 15.5 20.9 24.0 19.5 -1.0 0006
12/7/23 22.7 0009 16.2 0754 20.0 93.7 1818 SSW | 208 38.4 17.7 98 26 22.4 15.8 19.4 24.0 24.0 -10.7 1818
12/6/23 38.1 0005 21.6 2157 29.6 104.9 2309 NW | 308 18.6 19.5 98 39 30.8 21.3 26.3 19.3 13.5 -7.1 2304
12/5/23 46.7 1229 31.8 0019 40.0 29.6 1326 SSW | 194 7.4 16.7 56 30 36.1 27.3 32.1 0.6 0.1 23.6 0045
12/4/23 39.6 1141 29.9 0700 33.8 28.6 0051 SSW | 207 11.6 15.0 56 29 32.1 24.8 28.0 12.8 3.5 18.6 0131
12/3/23 38.2 0910 23.9 0033 32.8 70.4 0015 SSW | 202 26.4 12.1 71 29 30.8 21.0 26.7 18.0 6.4 0.5 0025
12/2/23 28.7 1615 20.3 0001 24.2 87.5 2030 SSW | 204 43.2 11.8 91 35 24.6 18.2 20.9 24.0 24.0 -2.5 2030
12/1/23 24.5 1613 15.5 0547 20.0 80.7 0140 SSW | 211 31.7 16.3 97 58 22.2 15.1 18.9 24.0 24.0 -12.7 0436
11/30/23 22.0 1100 17.0 2357 18.9 58.8 2352 WSW | 240 32.0 16.5 96 73 20.0 16.6 18.2 24.0 24.0 -8.9 2328
11/29/23 32.8 1212 20.4 2029 24.3 53.3 0433 SSW | 208 15.0 10.7 88 26 26.2 17.4 20.7 - 23.7 -1.9 0444
11/28/23 34.9 1131 24.1 2340 28.5 49.5 1542 SSW | 204 15.0 -4.5 54 9 25.3 17.7 21.6 24.0 20.1 5.7 2147
11/27/23 30.8 1359 18.8 0545 24.0 16.6 1400 E | 82 5.1 -10.4 43 15 22.6 13.7 17.6 24.0 24.0 6.4 0011
11/26/23 30.6 1358 19.6 2359 25.1 19.2 1624 NE | 55 11.9 -10.9 43 9 23.3 15.5 18.5 24.0 24.0 5.3 2229
11/25/23 25.1 1244 15.2 0348 20.4 16.5 1919 ENE | 76 - -4.4 56 17 19.1 11.4 15.7 24.0 24.0 4.8 1919
11/24/23 25.2 1213 8.9 0651 16.5 16.6 0833 E | 82 4.6 10.4 96 40 20.5 8.7 15.0 24.0 24.0 -4.5 0738
11/23/23 39.1 0008 17.6 2359 28.9 52.6 0917 SW | 222 16.3 19.2 100 25 31.2 17.3 25.8 13.9 15.7 6.2 2254
11/22/23 47.9 1014 37.0 2323 42.0 38.0 1231 SSW | 206 11.1 6.8 40 16 34.9 28.8 31.5 0.0 0.0 25.3 2355
11/21/23 47.2 1117 36.2 0001 42.9 37.1 1108 S | 186 9.9 -1.6 27 7 34.5 25.6 31.0 4.5 0.0 27.9 0003
11/20/23 39.5 1447 28.4 0056 34.5 44.1 0211 E | 80 19.3 -13.6 20 8 28.5 20.1 24.6 23.2 7.5 12.0 0202
11/19/23 32.5 1910 16.1 0436 24.4 144.4 0023 SW | 236 26.1 12.9 100 11 29.3 15.8 21.8 23.4 23.7 -11.7 0234
11/18/23 27.0 1839 24.7 2359 26.0 118.8 2358 WSW | 254 16.8 26.0 100 100 26.8 24.6 25.8 24.0 24.0 -4.4 2358
11/17/23 29.7 1356 23.3 0104 26.3 30.4 2352 E | 83 6.5 26.3 100 99 29.6 23.1 26.2 20.3 24.0 9.3 2352
11/16/23 31.1 1428 23.7 2251 28.1 57.0 0631 S | 190 8.9 28.1 100 99 31.0 23.5 28.0 11.1 24.0 6.3 0631
11/15/23 37.1 1016 25.7 1730 31.6 41.7 2111 SW | 231 - 20.2 100 25 34.4 24.0 28.3 10.7 16.5 12.9 2340
11/14/23 36.9 1237 27.4 0058 32.1 38.0 1439 SW | 217 8.7 7.2 43 28 29.3 22.0 25.4 20.2 9.1 11.8 0415
11/13/23 34.8 1359 27.3 2340 30.6 39.2 0338 WNW | 289 12.7 8.1 51 27 28.0 22.4 24.5 24.0 17.2 11.2 0338
11/12/23 40.3 1118 29.2 2332 35.2 41.6 1239 W | 279 - 7.6 42 19 30.7 23.0 27.4 10.4 5.7 13.4 2252
11/11/23 45.3 1057 32.3 0158 37.5 51.0 0439 SW | 225 16.8 10.3 50 22 34.5 26.0 29.3 6.6 0.0 15.2 0305
11/10/23 44.4 1203 28.3 0041 33.4 40.2 0525 SSW | 213 15.4 0.3 46 11 33.0 20.8 25.3 18.8 11.3 12.4 0523
11/9/23 36.7 1140 19.6 0036 28.6 33.0 1253 WSW | 242 16.0 -6.4 54 8 26.6 15.8 21.2 24.0 18.4 5.0 0037
11/8/23 22.2 2233 16.3 0836 20.0 27.6 0418 NE | 48 15.4 9.4 99 39 20.6 15.4 17.4 23.8 23.8 -1.3 0657
11/7/23 27.1 0023 18.9 2333 22.3 67.5 0558 WSW | 256 16.9 21.9 100 97 26.9 18.6 22.0 24.0 24.0 -0.5 0835
11/6/23 34.4 0040 26.5 1313 29.5 55.8 0439 WNW | 303 15.2 27.5 100 60 32.1 26.3 28.7 8.3 22.3 6.4 1314
11/5/23 43.3 1235 33.5 2356 37.5 62.3 2355 W | 268 17.0 21.2 82 28 36.4 28.1 31.8 0.0 0.0 14.6 2355
11/4/23 48.9 1400 37.6 0058 42.9 56.2 1420 W | 264 16.7 25.6 66 36 39.2 32.5 36.2 0.0 0.0 24.5 0039
11/3/23 53.8 1207 39.8 0546 45.6 37.9 1421 SSW | 207 - 18.7 54 17 40.8 29.6 36.0 0.0 0.0 31.0 0437
11/2/23 50.2 1316 38.9 2345 45.0 42.0 1003 SSW | 198 - 5.4 41 13 36.0 30.4 33.0 0.0 0.0 31.2 1845
11/1/23 52.0 1454 37.2 0206 42.3 29.5 0032 SSW | 205 10.1 0.6 28 10 36.3 27.3 30.8 0.9 0.0 30.5 0522
10/31/23 48.8 1411 34.5 0456 41.2 14.9 0602 S | 174 3.4 -1.4 33 10 35.0 24.8 29.9 7.2 0.0 28.7 0603
10/30/23 45.3 1431 31.9 0107 38.4 19.8 1332 ENE | 65 9.2 -9.6 20 3 32.5 22.3 27.4 15.2 0.0 23.4 0353
10/29/23 33.2 1357 19.3 0611 27.2 33.7 0938 N | 0 17.3 -6.8 40 6 25.4 13.9 20.2 24.0 18.8 0.2 0624
10/28/23 30.6 1130 14.6 2214 24.2 66.6 0353 SSW | 211 25.2 5.2 86 14 25.8 13.3 19.7 24.0 24.0 -3.6 2114
10/27/23 39.8 1403 28.1 0023 32.5 54.9 1012 SW | 234 31.2 18.7 83 4 31.2 22.0 28.0 16.8 4.0 8.8 0024
10/26/23 40.5 1501 24.7 0904 31.7 90.5 0707 SW | 219 39.5 21.9 100 21 32.9 24.5 28.5 10.3 10.7 -0.4 0836
10/25/23 40.1 1337 26.2 0027 34.1 89.7 1727 W | 279 32.2 23.0 100 30 33.2 26.1 30.3 2.5 6.8 4.3 0041
10/24/23 48.4 1139 33.1 0125 39.7 65.6 2342 SW | 223 22.9 16.4 76 8 37.6 25.3 32.2 2.1 0.0 17.3 2342
10/23/23 40.2 1644 29.1 0633 33.7 30.0 0937 NE | 47 10.7 28.8 100 58 35.6 28.6 31.8 0.0 9.2 16.0 0937
10/22/23 39.7 0101 29.4 2300 34.4 78.7 1740 SW | 220 24.2 31.7 100 66 35.9 28.8 33.3 0.0 6.8 10.6 2035
10/21/23 53.4 1345 39.6 0059 45.5 42.5 0858 SW | 217 13.4 29.7 72 32 42.8 35.7 38.9 0.0 0.0 27.3 0055
10/20/23 54.0 1318 44.0 0059 48.9 57.5 1447 W | 268 15.5 29.1 66 32 42.7 37.1 40.5 0.0 0.0 35.7 2314
10/19/23 61.5 1457 47.8 0559 52.5 42.1 2250 SSW | 196 12.9 22.8 45 18 43.6 37.3 40.4 0.0 0.0 38.7 2350
10/18/23 58.6 1502 43.6 0710 50.8 19.6 1857 ENE | 74 6.7 21.8 42 19 44.2 35.6 39.3 0.0 0.0 37.8 0415
10/17/23 56.5 1445 45.8 0040 50.1 37.6 0520 SSW | 213 11.0 14.9 40 11 40.7 33.8 37.4 0.0 0.0 36.8 0519
10/16/23 55.3 1317 33.8 0101 50.6 54.1 1331 WSW | 245 19.3 17.4 65 10 43.4 27.2 38.4 3.1 0.0 20.3 0206
10/13/23 47.9 1119 32.9 0723 39.1 53.8 0718 SSW | 198 20.2 17.2 78 6 35.5 28.7 31.9 0.0 0.0 15.5 0720
10/12/23 41.5 1542 22.8 0727 31.7 20.1 0735 ENE | 63 10.5 18.1 89 35 33.7 20.6 27.2 11.2 10.1 7.9 0735
10/11/23 41.0 1420 24.0 0023 31.4 87.8 0546 WSW | 240 29.6 23.9 100 26 36.1 22.7 28.9 10.1 15.1 2.6 0802
10/10/23 44.4 1423 30.7 0041 37.9 75.0 0851 SW | 228 23.4 23.2 100 26 36.7 29.9 32.8 0.0 2.6 13.2 0007
10/9/23 54.1 0951 36.3 2331 40.4 68.4 1934 WSW | 246 19.3 30.3 88 39 48.1 32.2 36.4 0.0 0.0 21.5 0012
9/10/23 57.0 1349 46.1 1853 49.6 42.6 1609 S | 187 14.9 43.3 92 48 51.2 44.1 46.8 0.0 0.0 37.9 0746
9/9/23 56.8 1510 43.5 1013 50.0 56.3 1006 W | 268 10.0 43.7 94 61 51.0 42.6 47.2 0.0 0.0 30.9 1006
9/8/23 58.5 1413 43.9 0540 50.2 65.5 1455 W | 266 13.4 22.1 67 20 43.3 33.2 39.4 0.0 0.0 34.9 0635
9/7/23 57.0 1329 44.1 0232 49.2 54.7 1411 WSW | 253 9.8 26.8 70 18 44.9 35.0 40.2 0.0 0.0 34.1 2346
9/6/23 56.3 1348 43.2 0614 48.1 38.9 1506 WSW | 238 13.7 36.5 88 37 46.8 39.7 42.9 0.0 0.0 33.2 0418
9/5/23 57.4 1314 42.1 0546 49.0 37.0 2312 S | 187 - 32.9 85 26 46.6 36.5 41.9 0.0 0.0 33.4 0436
9/4/23 53.8 1502 32.3 0142 43.9 18.4 1545 E | 83 - 30.2 100 41 44.1 29.8 38.1 0.0 0.0 23.1 0246
9/3/23 44.1 0929 32.8 0017 37.6 74.7 1418 W | 270 14.9 37.2 100 80 42.6 32.7 37.5 0.0 0.0 17.1 1511
9/2/23 45.0 1239 39.1 0456 41.7 44.7 1304 NNE | 18 12.0 40.0 100 57 45.5 34.7 41.2 0.0 0.0 26.1 0541
9/1/23 50.2 1301 38.8 2156 44.0 66.8 1733 W | 275 15.7 23.3 74 26 40.1 33.2 36.2 0.0 0.0 27.9 2221
8/31/23 58.9 1244 43.9 2341 51.7 77.4 1846 WSW | 257 14.6 17.6 52 12 43.4 34.5 39.0 0.0 0.0 33.4 2356
8/30/23 68.3 1152 51.3 0539 60.0 47.7 1359 WSW | 237 9.5 17.0 31 7 45.9 38.4 42.6 0.0 0.0 - -
8/29/23 64.8 1518 51.2 0614 57.4 57.6 1143 SSW | 205 17.8 28.7 57 16 48.0 40.8 44.6 0.0 0.0 - -
8/28/23 69.3 1511 50.8 0234 59.2 40.9 1749 SW | 216 - 28.0 46 17 49.1 38.7 45.0 0.0 0.0 - -
8/27/23 66.4 1241 48.6 0625 56.9 32.1 1631 SSW | 212 9.0 25.6 62 11 48.2 38.8 43.4 0.0 0.0 42.7 0334
8/26/23 60.9 1421 47.0 0527 53.3 39.1 1529 WSW | 248 - 30.7 63 24 48.1 38.8 43.2 0.0 0.0 39.0 0225
8/25/23 59.9 1256 47.0 0540 52.4 39.8 1800 SW | 214 15.7 40.7 86 45 51.2 42.6 46.8 0.0 0.0 40.1 0037
8/24/23 57.2 1254 46.1 0628 50.4 51.4 1321 S | 179 10.3 37.5 84 34 48.8 37.1 44.7 0.0 0.0 38.6 1412
8/23/23 60.8 1439 41.3 0441 50.2 28.8 0019 SSW | 211 - 34.7 88 29 49.9 38.5 43.2 0.0 0.0 40.3 0059
8/22/23 52.1 1411 38.1 0423 45.1 33.3 1608 SW | 233 7.2 38.8 100 57 47.2 38.2 42.3 0.0 0.0 27.3 0202
8/21/23 45.4 1507 39.1 0750 41.6 59.2 0405 W | 267 10.9 41.6 100 100 45.9 39.3 41.9 0.0 0.0 24.8 0409
8/20/23 42.6 1421 38.9 2117 40.3 31.2 1949 ENE | 60 6.5 39.6 100 82 42.9 38.5 40.2 0.0 0.0 27.5 2110
8/19/23 57.0 1029 40.0 0058 49.0 31.9 1702 SSW | 195 6.8 33.0 100 29 46.3 38.5 42.1 0.0 0.0 33.1 2201
8/18/23 63.0 1252 45.5 1831 54.3 48.7 1205 WSW | 245 14.2 30.9 83 24 47.2 40.6 43.8 0.0 0.0 36.4 1827
8/17/23 62.2 1400 48.5 0727 55.0 47.7 1644 WSW | 256 12.9 39.7 80 41 52.1 44.2 47.6 0.0 0.0 43.2 0721
8/16/23 65.7 1301 48.7 1820 55.4 43.2 1745 SSW | 204 8.1 39.0 86 38 53.2 43.7 47.5 0.0 0.0 39.9 1821
8/15/23 57.8 0720 46.1 1428 53.0 37.0 1420 SSE | 163 - 37.5 91 34 49.7 41.2 45.8 0.0 0.0 36.3 1420
8/14/23 60.6 1453 48.6 0257 54.2 29.1 1915 SSW | 211 5.4 38.2 70 39 50.8 43.4 46.5 0.0 0.0 46.2 0102
8/13/23 56.0 1141 46.8 0745 51.8 41.3 1229 E | 100 6.5 38.0 87 41 49.2 43.3 45.4 0.0 0.0 37.0 1240
8/12/23 62.5 1615 46.9 0444 53.1 41.9 1742 SSW | 199 8.1 37.5 88 30 52.0 41.8 45.8 0.0 0.0 44.5 0149
8/11/23 60.0 1458 46.1 0601 50.6 34.0 1917 SSW | 204 7.9 41.4 88 43 52.9 42.8 46.4 0.0 0.0 38.3 2102
8/10/23 64.4 1425 48.8 0101 53.8 49.0 1709 WSW | 237 - 32.7 72 31 49.4 39.3 44.3 0.0 0.0 39.5 1837
8/9/23 60.6 1326 48.2 0113 54.5 62.4 1425 W | 259 25.6 16.4 60 6 44.1 35.5 40.5 0.0 0.0 37.9 0115
8/8/23 61.5 1258 47.4 0326 53.3 64.4 0203 SW | 229 28.6 28.2 67 16 46.1 37.8 42.6 0.0 0.0 35.6 0327
8/7/23 63.4 1236 48.1 2331 55.5 69.0 1415 WSW | 246 19.3 30.2 70 12 49.2 40.6 44.5 0.0 0.0 36.0 0054
8/6/23 68.0 1230 47.4 0547 56.4 38.6 1534 SSW | 206 10.1 32.8 67 8 50.5 41.8 45.6 0.0 0.0 42.9 0550
8/5/23 62.3 1442 46.5 0543 55.2 52.2 1303 WSW | 246 12.3 24.3 56 8 46.8 35.4 42.6 0.0 0.0 43.7 0619
8/4/23 63.2 1144 46.1 0533 54.8 58.6 1800 W | 265 14.2 23.7 70 6 48.0 36.2 42.4 0.0 0.0 43.7 0326
8/3/23 62.6 1212 46.5 0544 53.8 48.8 1828 SW | 233 - 32.3 66 20 48.5 38.2 44.1 0.0 0.0 46.5 0544
8/2/23 63.2 1111 48.1 2057 54.3 48.7 1905 SW | 217 16.4 29.8 62 26 48.3 38.7 43.4 0.0 0.0 37.9 2056
8/1/23 63.0 1242 51.2 2335 54.8 46.7 1349 W | 261 22.1 32.5 49 29 48.2 40.9 44.5 0.0 0.0 - -
7/31/23 63.5 1314 52.5 2240 57.1 54.7 2025 SSW | 204 29.2 29.1 42 28 48.8 40.8 44.4 0.0 0.0 - -
7/30/23 64.2 1342 52.6 0111 57.3 47.6 1131 WSW | 255 24.2 29.8 55 15 48.8 41.0 44.8 0.0 0.0 - -
7/29/23 63.2 1437 52.5 2307 57.5 64.2 1352 WSW | 256 19.9 26.8 52 16 48.2 39.7 44.1 0.0 0.0 - -
7/28/23 66.2 1600 51.1 0216 58.2 46.0 1807 SW | 214 15.8 27.0 46 13 47.6 40.2 44.3 0.0 0.0 - -
7/27/23 62.6 1502 49.4 0512 55.3 61.7 1558 WSW | 247 11.5 29.8 55 16 47.0 41.6 43.9 0.0 0.0 42.0 0428
7/26/23 65.1 1321 52.0 0059 58.4 57.9 1435 WSW | 255 16.5 32.5 51 27 49.2 43.5 46.1 0.0 0.0 - -
7/25/23 66.9 1313 53.7 0116 59.4 53.6 1410 W | 262 13.8 33.4 48 24 50.1 44.3 46.8 0.0 0.0 - -
7/24/23 63.1 1357 51.3 0631 56.6 54.8 1602 WSW | 253 12.0 36.6 76 26 50.5 42.1 47.1 0.0 0.0 - -
7/23/23 71.6 1259 57.0 2117 62.9 39.5 0453 W | 265 11.2 32.7 59 18 53.0 43.5 48.2 0.0 0.0 - -
7/22/23 73.4 1151 60.3 0506 65.5 39.9 1641 W | 259 10.2 31.4 42 18 52.4 44.8 48.6 0.0 0.0 - -
7/21/23 75.2 1301 56.0 0533 64.8 42.9 1911 SSW | 205 10.6 35.7 50 14 54.3 44.2 49.8 0.0 0.0 - -
7/20/23 70.8 1340 54.6 0506 62.0 42.3 1902 SSW | 206 16.5 38.3 68 20 53.5 46.8 49.9 0.0 0.0 - -
7/19/23 66.4 1219 54.0 0519 57.1 65.6 1715 WSW | 250 15.2 44.8 69 44 54.4 47.9 50.9 0.0 0.0 - -
7/18/23 68.0 1231 54.1 0017 59.3 60.8 1649 WSW | 242 27.9 45.0 80 42 56.0 48.1 51.9 0.0 0.0 - -
7/17/23 71.5 1223 56.8 0057 63.4 43.3 1442 W | 272 16.4 41.4 78 25 56.3 46.6 52.0 0.0 0.0 - -
7/16/23 75.0 1331 59.7 0538 67.0 44.0 0033 S | 183 11.0 30.9 47 16 52.7 44.1 49.1 0.0 0.0 - -
7/15/23 77.8 1429 58.2 0325 67.8 44.7 2111 SSW | 195 12.5 24.4 29 10 51.8 42.8 47.4 0.0 0.0 - -
7/14/23 76.0 1354 51.7 0545 63.8 26.6 1651 SW | 215 - 25.0 32 11 51.0 39.8 45.9 0.0 0.0 - -
7/13/23 67.4 1411 49.6 0236 58.7 42.5 0108 SSW | 201 20.4 14.0 44 5 49.3 35.2 42.0 0.0 0.0 41.0 0236
7/12/23 59.7 1447 48.8 0106 55.0 49.3 1847 SW | 217 30.2 19.9 50 6 45.1 36.0 41.4 0.0 0.0 38.9 0106
7/11/23 62.4 1039 48.9 0057 55.4 49.6 1338 W | 266 20.3 22.8 51 9 45.9 36.9 42.1 0.0 0.0 39.0 0059
7/10/23 65.2 1117 49.5 0419 56.4 44.5 1933 SSW | 202 17.7 25.0 48 12 49.6 37.8 43.0 0.0 0.0 43.1 0422
7/9/23 62.0 0752 48.8 0512 54.0 51.4 1828 SW | 218 19.3 34.8 76 26 49.4 39.5 45.2 0.0 0.0 40.4 2242
7/8/23 64.5 1259 48.7 0513 56.2 40.8 1920 S | 183 10.4 35.1 57 29 49.8 42.1 46.1 0.0 0.0 48.7 0513
7/7/23 62.6 0726 48.7 0516 54.6 53.4 1745 SSW | 211 16.2 35.2 62 32 49.2 42.1 45.4 0.0 0.0 48.7 0516
7/6/23 61.8 1439 50.6 2038 55.7 46.6 1914 SSW | 201 20.7 32.6 59 27 48.7 41.1 45.1 0.0 0.0 - -
7/5/23 67.0 1159 51.3 0524 57.8 48.0 1726 W | 266 15.5 33.2 51 29 51.4 42.1 46.1 0.0 0.0 - -
7/4/23 65.4 1235 50.1 0654 56.1 41.4 1719 SW | 220 11.9 34.0 58 24 50.1 42.5 45.7 0.0 0.0 - -
7/3/23 64.6 1201 49.5 2203 56.8 57.0 2043 SSW | 210 23.2 34.2 56 28 49.7 42.4 46.0 0.0 0.0 39.2 2156
7/2/23 71.0 1308 54.4 0444 61.4 47.7 2126 SW | 230 12.9 35.8 49 21 52.2 44.6 48.6 0.0 0.0 - -
7/1/23 69.1 1307 51.8 0526 60.6 41.7 2014 SW | 214 - 32.7 55 23 51.2 41.6 47.1 0.0 0.0 - -
6/30/23 65.5 1525 47.6 0527 56.4 29.1 1800 SW | 216 - 31.6 53 22 49.5 39.9 44.9 0.0 0.0 45.9 0128
6/29/23 56.5 1553 43.0 0101 49.2 23.8 1118 NE | 45 8.3 29.8 60 34 44.6 37.5 40.8 0.0 0.0 36.6 0804
6/28/23 54.6 1346 39.7 1817 43.6 46.4 1732 WSW | 247 8.8 30.7 77 36 43.8 36.3 38.3 0.0 0.0 27.5 1732
6/27/23 55.3 1239 34.4 0447 45.1 30.7 1928 S | 183 7.3 29.2 95 29 42.4 33.6 38.6 0.0 0.0 34.0 0329
6/26/23 51.8 1233 38.4 0414 44.0 53.9 1756 SW | 219 13.7 34.3 89 36 44.2 35.7 39.8 0.0 0.0 26.7 2000
6/25/23 50.4 1259 40.2 0717 44.1 54.9 1819 SW | 221 17.0 30.9 87 21 43.6 34.6 38.7 0.0 0.0 27.0 2030
6/24/23 52.2 1527 37.2 0400 44.0 35.4 2034 SW | 214 9.0 26.8 72 29 41.4 32.3 37.1 0.0 0.0 27.9 2141
6/23/23 52.8 1430 28.7 0433 39.6 43.4 0115 WSW | 244 12.9 28.4 99 27 43.1 24.0 35.2 2.6 5.2 11.5 0411
6/22/23 50.2 0907 30.4 0037 38.9 62.8 2308 W | 260 18.7 24.4 100 29 39.0 29.1 33.6 0.0 3.3 11.0 2308
6/21/23 51.4 1316 33.4 0830 40.7 38.5 1853 SSW | 202 - 17.8 64 16 39.4 25.7 32.8 2.4 0.0 21.5 0104
6/20/23 41.4 1546 24.5 0524 33.7 55.3 0605 SW | 217 21.5 16.2 97 16 33.7 23.4 28.4 10.7 7.8 3.4 0552
6/19/23 38.1 1415 26.4 0058 33.2 73.1 0637 WSW | 248 17.7 24.8 100 28 37.4 25.6 30.5 4.5 7.9 7.3 0834
6/18/23 46.0 1224 36.9 0031 42.0 84.1 1615 WSW | 254 23.2 37.3 100 51 42.2 37.0 40.1 0.0 0.0 21.6 2247
6/17/23 53.5 1314 40.9 0346 46.8 63.8 0012 SW | 219 23.2 35.5 93 42 47.2 34.2 42.0 0.0 0.0 28.1 0030
6/16/23 56.6 1427 37.0 0524 45.6 37.4 1809 SW | 221 - 26.8 89 31 48.7 30.8 38.2 0.0 0.0 29.2 0252
6/15/23 53.1 1524 40.6 0040 46.4 35.4 1549 SW | 216 - 34.4 84 33 47.6 34.7 41.3 0.0 0.0 32.6 0543
6/14/23 56.1 1105 40.8 0318 45.7 50.5 1552 SSW | 210 - 39.0 100 48 48.9 38.6 42.8 0.0 0.0 29.2 2014
6/13/23 54.1 1222 35.7 0402 42.5 41.9 2007 SW | 221 9.9 36.9 100 49 46.8 35.0 40.1 0.0 0.0 24.6 2017
6/12/23 49.8 1522 33.1 0550 38.1 32.4 1736 S | 177 8.0 34.3 99 58 43.7 32.6 36.5 0.0 0.0 20.8 0512
6/11/23 47.8 1206 30.8 0306 35.8 46.2 1606 SSE | 164 10.4 31.7 100 61 42.8 30.8 34.2 0.0 1.8 16.5 1422
6/10/23 44.3 1148 31.6 2034 37.8 48.7 1924 S | 182 10.1 33.2 100 60 41.3 31.4 36.0 0.0 0.3 14.9 2016
6/9/23 52.6 0849 35.9 0345 42.6 47.0 1714 SW | 229 16.3 31.9 90 39 42.7 33.2 38.2 0.0 0.0 28.0 2010
6/8/23 49.6 1433 34.3 0544 38.0 59.5 1756 SSW | 199 13.0 31.5 100 45 43.0 33.2 35.4 0.0 0.0 17.3 1813
6/7/23 41.8 1809 35.0 0624 37.9 29.0 1040 ENE | 58 9.9 28.9 89 49 38.1 32.5 34.4 0.0 0.0 23.8 0524
6/6/23 47.4 1446 33.9 0314 39.2 38.4 1058 E | 99 8.3 29.7 100 26 40.1 33.0 35.6 0.0 0.0 20.2 0313
6/5/23 52.8 1324 34.8 0046 43.2 46.3 1826 S | 188 13.6 31.1 100 28 44.5 34.8 38.2 0.0 0.0 24.2 2325
6/4/23 57.8 1100 39.5 2024 46.0 42.7 1531 SW | 232 7.4 28.8 81 33 45.0 36.3 38.9 0.0 0.0 29.6 2012
6/3/23 55.8 1047 38.5 0518 46.6 43.5 1604 WSW | 253 11.4 27.8 62 34 43.9 33.1 38.8 0.0 0.0 32.8 0335
6/2/23 51.1 1419 34.5 0535 44.3 40.8 1927 SSW | 202 - 13.6 66 6 39.9 27.2 34.4 1.4 0.0 25.2 0101
6/1/23 47.3 1354 34.3 0518 40.9 72.1 1545 W | 260 21.4 26.3 94 30 39.8 29.8 35.3 0.0 0.0 21.6 2028
5/31/23 54.8 1238 34.9 0444 40.6 55.4 1724 SSW | 212 15.0 28.2 84 32 42.8 31.8 35.7 0.0 0.0 21.9 1740
5/30/23 53.7 1350 35.1 0645 39.4 53.9 1744 SSW | 206 15.0 29.2 98 21 44.6 32.7 35.5 0.0 0.0 23.4 2041
5/29/23 52.8 1230 36.1 2039 40.3 55.1 1911 SSW | 211 14.6 34.1 99 41 44.6 35.6 37.7 0.0 0.0 21.1 2039
5/28/23 49.1 0851 36.1 2351 41.1 41.1 2126 SW | 218 14.8